sensor_id;sensor_type;location;lat;lon;timestamp;P1;durP1;ratioP1;P2;durP2;ratioP2
25091;SDS011;13082;52.374;4.946;2022-12-18T00:01:59;72.80;;;27.97;;
25091;SDS011;13082;52.374;4.946;2022-12-18T00:04:25;74.00;;;25.57;;
25091;SDS011;13082;52.374;4.946;2022-12-18T00:06:51;64.20;;;25.80;;
25091;SDS011;13082;52.374;4.946;2022-12-18T00:09:18;78.80;;;26.17;;
25091;SDS011;13082;52.374;4.946;2022-12-18T00:11:44;59.50;;;23.33;;
25091;SDS011;13082;52.374;4.946;2022-12-18T00:14:13;71.23;;;27.93;;
25091;SDS011;13082;52.374;4.946;2022-12-18T00:16:39;87.30;;;29.40;;
25091;SDS011;13082;52.374;4.946;2022-12-18T00:19:08;71.33;;;27.87;;
25091;SDS011;13082;52.374;4.946;2022-12-18T00:21:35;76.10;;;27.47;;
25091;SDS011;13082;52.374;4.946;2022-12-18T00:24:01;68.30;;;25.17;;
25091;SDS011;13082;52.374;4.946;2022-12-18T00:26:30;65.20;;;26.47;;
25091;SDS011;13082;52.374;4.946;2022-12-18T00:28:58;59.23;;;24.53;;
25091;SDS011;13082;52.374;4.946;2022-12-18T00:31:29;67.40;;;25.27;;
25091;SDS011;13082;52.374;4.946;2022-12-18T00:33:55;62.30;;;25.07;;
25091;SDS011;13082;52.374;4.946;2022-12-18T00:36:22;71.50;;;25.80;;
25091;SDS011;13082;52.374;4.946;2022-12-18T00:38:50;58.73;;;24.87;;
25091;SDS011;13082;52.374;4.946;2022-12-18T00:41:17;70.43;;;25.90;;
25091;SDS011;13082;52.374;4.946;2022-12-18T00:44:02;67.83;;;26.70;;
25091;SDS011;13082;52.374;4.946;2022-12-18T00:46:28;67.37;;;25.50;;
25091;SDS011;13082;52.374;4.946;2022-12-18T00:48:54;73.33;;;26.40;;
25091;SDS011;13082;52.374;4.946;2022-12-18T00:51:20;71.53;;;24.43;;
25091;SDS011;13082;52.374;4.946;2022-12-18T00:53:45;70.60;;;26.60;;
25091;SDS011;13082;52.374;4.946;2022-12-18T00:56:11;73.27;;;26.40;;
25091;SDS011;13082;52.374;4.946;2022-12-18T00:58:37;72.53;;;26.13;;
25091;SDS011;13082;52.374;4.946;2022-12-18T01:01:06;62.97;;;25.47;;
25091;SDS011;13082;52.374;4.946;2022-12-18T01:03:32;56.97;;;22.43;;
25091;SDS011;13082;52.374;4.946;2022-12-18T01:05:57;59.90;;;25.07;;
25091;SDS011;13082;52.374;4.946;2022-12-18T01:08:23;64.20;;;23.90;;
25091;SDS011;13082;52.374;4.946;2022-12-18T01:10:49;73.13;;;23.57;;
25091;SDS011;13082;52.374;4.946;2022-12-18T01:13:15;67.07;;;25.70;;
25091;SDS011;13082;52.374;4.946;2022-12-18T01:15:40;66.33;;;25.47;;
25091;SDS011;13082;52.374;4.946;2022-12-18T01:18:12;57.47;;;24.90;;
25091;SDS011;13082;52.374;4.946;2022-12-18T01:20:38;55.23;;;25.10;;
25091;SDS011;13082;52.374;4.946;2022-12-18T01:23:03;75.00;;;25.93;;
25091;SDS011;13082;52.374;4.946;2022-12-18T01:25:29;62.23;;;24.47;;
25091;SDS011;13082;52.374;4.946;2022-12-18T01:27:54;65.07;;;24.97;;
25091;SDS011;13082;52.374;4.946;2022-12-18T01:30:20;64.60;;;25.73;;
25091;SDS011;13082;52.374;4.946;2022-12-18T01:32:45;67.73;;;26.60;;
25091;SDS011;13082;52.374;4.946;2022-12-18T01:35:11;69.90;;;26.93;;
25091;SDS011;13082;52.374;4.946;2022-12-18T01:37:36;67.20;;;24.80;;
25091;SDS011;13082;52.374;4.946;2022-12-18T01:40:02;68.20;;;27.23;;
25091;SDS011;13082;52.374;4.946;2022-12-18T01:42:28;61.17;;;24.47;;
25091;SDS011;13082;52.374;4.946;2022-12-18T01:49:59;70.23;;;26.03;;
25091;SDS011;13082;52.374;4.946;2022-12-18T01:52:29;59.07;;;25.67;;
25091;SDS011;13082;52.374;4.946;2022-12-18T01:54:57;55.83;;;23.67;;
25091;SDS011;13082;52.374;4.946;2022-12-18T01:57:23;68.03;;;27.07;;
25091;SDS011;13082;52.374;4.946;2022-12-18T01:59:52;65.80;;;25.07;;
25091;SDS011;13082;52.374;4.946;2022-12-18T02:02:19;65.87;;;26.50;;
25091;SDS011;13082;52.374;4.946;2022-12-18T02:04:46;62.73;;;25.30;;
25091;SDS011;13082;52.374;4.946;2022-12-18T02:07:33;62.37;;;24.40;;
25091;SDS011;13082;52.374;4.946;2022-12-18T02:10:05;62.50;;;22.73;;
25091;SDS011;13082;52.374;4.946;2022-12-18T02:15:46;55.07;;;24.83;;
25091;SDS011;13082;52.374;4.946;2022-12-18T02:18:21;57.23;;;24.60;;
25091;SDS011;13082;52.374;4.946;2022-12-18T02:21:33;61.40;;;23.87;;
25091;SDS011;13082;52.374;4.946;2022-12-18T02:28:51;61.83;;;25.13;;
25091;SDS011;13082;52.374;4.946;2022-12-18T02:31:35;54.77;;;23.00;;
25091;SDS011;13082;52.374;4.946;2022-12-18T02:34:05;55.87;;;23.10;;
25091;SDS011;13082;52.374;4.946;2022-12-18T02:36:33;67.00;;;26.00;;
25091;SDS011;13082;52.374;4.946;2022-12-18T02:39:00;59.03;;;24.77;;
25091;SDS011;13082;52.374;4.946;2022-12-18T02:41:27;59.27;;;24.93;;
25091;SDS011;13082;52.374;4.946;2022-12-18T02:44:00;60.27;;;23.13;;
25091;SDS011;13082;52.374;4.946;2022-12-18T02:46:32;58.83;;;25.67;;
25091;SDS011;13082;52.374;4.946;2022-12-18T03:00:10;61.67;;;24.37;;
25091;SDS011;13082;52.374;4.946;2022-12-18T03:05:20;64.37;;;27.90;;
25091;SDS011;13082;52.374;4.946;2022-12-18T03:07:56;56.93;;;24.93;;
25091;SDS011;13082;52.374;4.946;2022-12-18T03:10:28;59.07;;;24.63;;
25091;SDS011;13082;52.374;4.946;2022-12-18T03:13:06;73.90;;;27.27;;
25091;SDS011;13082;52.374;4.946;2022-12-18T03:15:46;67.47;;;26.53;;
25091;SDS011;13082;52.374;4.946;2022-12-18T03:18:19;60.60;;;25.63;;
25091;SDS011;13082;52.374;4.946;2022-12-18T03:20:55;64.17;;;26.23;;
25091;SDS011;13082;52.374;4.946;2022-12-18T03:23:27;56.97;;;24.57;;
25091;SDS011;13082;52.374;4.946;2022-12-18T03:25:57;64.97;;;26.40;;
25091;SDS011;13082;52.374;4.946;2022-12-18T03:28:26;65.40;;;26.23;;
25091;SDS011;13082;52.374;4.946;2022-12-18T03:30:57;65.07;;;26.20;;
25091;SDS011;13082;52.374;4.946;2022-12-18T03:34:08;59.57;;;25.10;;
25091;SDS011;13082;52.374;4.946;2022-12-18T03:36:20;65.30;;;27.17;;
25091;SDS011;13082;52.374;4.946;2022-12-18T03:38:47;60.97;;;25.47;;
25091;SDS011;13082;52.374;4.946;2022-12-18T03:41:22;63.80;;;26.73;;
25091;SDS011;13082;52.374;4.946;2022-12-18T03:43:55;60.93;;;26.27;;
25091;SDS011;13082;52.374;4.946;2022-12-18T03:46:40;63.83;;;24.93;;
25091;SDS011;13082;52.374;4.946;2022-12-18T03:49:20;58.43;;;26.80;;
25091;SDS011;13082;52.374;4.946;2022-12-18T03:52:02;59.33;;;26.13;;
25091;SDS011;13082;52.374;4.946;2022-12-18T03:54:48;57.27;;;24.90;;
25091;SDS011;13082;52.374;4.946;2022-12-18T03:57:18;58.27;;;23.57;;
25091;SDS011;13082;52.374;4.946;2022-12-18T03:59:47;58.33;;;24.80;;
25091;SDS011;13082;52.374;4.946;2022-12-18T04:02:15;54.93;;;23.93;;
25091;SDS011;13082;52.374;4.946;2022-12-18T04:04:42;54.93;;;23.87;;
25091;SDS011;13082;52.374;4.946;2022-12-18T04:07:10;52.90;;;22.60;;
25091;SDS011;13082;52.374;4.946;2022-12-18T04:09:36;55.67;;;23.67;;
25091;SDS011;13082;52.374;4.946;2022-12-18T04:12:04;66.20;;;24.37;;
25091;SDS011;13082;52.374;4.946;2022-12-18T04:14:29;55.90;;;24.37;;
25091;SDS011;13082;52.374;4.946;2022-12-18T04:16:55;59.17;;;24.37;;
25091;SDS011;13082;52.374;4.946;2022-12-18T04:19:20;56.83;;;23.67;;
25091;SDS011;13082;52.374;4.946;2022-12-18T04:21:46;64.27;;;26.20;;
25091;SDS011;13082;52.374;4.946;2022-12-18T04:24:12;59.57;;;25.63;;
25091;SDS011;13082;52.374;4.946;2022-12-18T04:26:37;53.50;;;25.33;;
25091;SDS011;13082;52.374;4.946;2022-12-18T04:29:03;56.67;;;25.43;;
25091;SDS011;13082;52.374;4.946;2022-12-18T04:31:28;61.93;;;26.70;;
25091;SDS011;13082;52.374;4.946;2022-12-18T04:33:54;65.23;;;24.97;;
25091;SDS011;13082;52.374;4.946;2022-12-18T04:36:20;56.47;;;25.17;;
25091;SDS011;13082;52.374;4.946;2022-12-18T04:38:46;60.90;;;24.77;;
25091;SDS011;13082;52.374;4.946;2022-12-18T04:41:11;48.30;;;22.07;;
25091;SDS011;13082;52.374;4.946;2022-12-18T04:43:37;59.90;;;25.87;;
25091;SDS011;13082;52.374;4.946;2022-12-18T04:46:06;46.57;;;22.97;;
25091;SDS011;13082;52.374;4.946;2022-12-18T04:48:32;55.00;;;24.37;;
25091;SDS011;13082;52.374;4.946;2022-12-18T04:50:58;55.57;;;25.17;;
25091;SDS011;13082;52.374;4.946;2022-12-18T04:53:24;53.50;;;23.90;;
25091;SDS011;13082;52.374;4.946;2022-12-18T04:55:50;46.87;;;23.07;;
25091;SDS011;13082;52.374;4.946;2022-12-18T04:58:15;55.50;;;24.20;;
25091;SDS011;13082;52.374;4.946;2022-12-18T05:00:41;48.13;;;23.53;;
25091;SDS011;13082;52.374;4.946;2022-12-18T05:03:07;44.47;;;22.00;;
25091;SDS011;13082;52.374;4.946;2022-12-18T05:05:34;46.83;;;23.00;;
25091;SDS011;13082;52.374;4.946;2022-12-18T05:08:00;46.23;;;22.90;;
25091;SDS011;13082;52.374;4.946;2022-12-18T05:10:25;46.53;;;22.37;;
25091;SDS011;13082;52.374;4.946;2022-12-18T05:12:51;47.23;;;21.93;;
25091;SDS011;13082;52.374;4.946;2022-12-18T05:15:23;48.93;;;22.60;;
25091;SDS011;13082;52.374;4.946;2022-12-18T05:17:49;51.20;;;22.37;;
25091;SDS011;13082;52.374;4.946;2022-12-18T05:20:15;51.60;;;23.93;;
25091;SDS011;13082;52.374;4.946;2022-12-18T05:22:40;46.43;;;22.20;;
25091;SDS011;13082;52.374;4.946;2022-12-18T05:25:06;53.53;;;23.80;;
25091;SDS011;13082;52.374;4.946;2022-12-18T05:27:32;47.57;;;22.80;;
25091;SDS011;13082;52.374;4.946;2022-12-18T05:29:58;52.93;;;23.00;;
25091;SDS011;13082;52.374;4.946;2022-12-18T05:32:23;49.07;;;22.40;;
25091;SDS011;13082;52.374;4.946;2022-12-18T05:34:49;42.87;;;21.13;;
25091;SDS011;13082;52.374;4.946;2022-12-18T05:37:14;50.00;;;22.77;;
25091;SDS011;13082;52.374;4.946;2022-12-18T05:39:40;42.93;;;21.63;;
25091;SDS011;13082;52.374;4.946;2022-12-18T05:42:06;44.13;;;22.00;;
25091;SDS011;13082;52.374;4.946;2022-12-18T05:44:31;56.70;;;23.33;;
25091;SDS011;13082;52.374;4.946;2022-12-18T05:46:57;52.20;;;24.50;;
25091;SDS011;13082;52.374;4.946;2022-12-18T05:49:22;41.67;;;22.63;;
25091;SDS011;13082;52.374;4.946;2022-12-18T05:51:48;45.10;;;22.87;;
25091;SDS011;13082;52.374;4.946;2022-12-18T05:54:14;48.20;;;22.43;;
25091;SDS011;13082;52.374;4.946;2022-12-18T05:56:39;46.17;;;23.67;;
25091;SDS011;13082;52.374;4.946;2022-12-18T05:59:05;48.00;;;24.57;;
25091;SDS011;13082;52.374;4.946;2022-12-18T06:01:30;51.87;;;23.93;;
25091;SDS011;13082;52.374;4.946;2022-12-18T06:03:56;42.03;;;23.03;;
25091;SDS011;13082;52.374;4.946;2022-12-18T06:06:23;45.67;;;23.67;;
25091;SDS011;13082;52.374;4.946;2022-12-18T06:08:50;45.90;;;24.27;;
25091;SDS011;13082;52.374;4.946;2022-12-18T06:11:17;49.33;;;23.57;;
25091;SDS011;13082;52.374;4.946;2022-12-18T06:13:45;48.03;;;22.00;;
25091;SDS011;13082;52.374;4.946;2022-12-18T06:16:11;41.87;;;22.07;;
25091;SDS011;13082;52.374;4.946;2022-12-18T06:18:37;41.10;;;21.87;;
25091;SDS011;13082;52.374;4.946;2022-12-18T06:21:03;38.37;;;21.10;;
25091;SDS011;13082;52.374;4.946;2022-12-18T06:23:29;43.00;;;22.00;;
25091;SDS011;13082;52.374;4.946;2022-12-18T06:25:54;37.37;;;20.97;;
25091;SDS011;13082;52.374;4.946;2022-12-18T06:28:20;34.80;;;19.53;;
25091;SDS011;13082;52.374;4.946;2022-12-18T06:30:48;39.60;;;20.20;;
25091;SDS011;13082;52.374;4.946;2022-12-18T06:33:15;35.40;;;19.07;;
25091;SDS011;13082;52.374;4.946;2022-12-18T06:35:41;38.50;;;19.87;;
25091;SDS011;13082;52.374;4.946;2022-12-18T06:38:06;33.20;;;17.50;;
25091;SDS011;13082;52.374;4.946;2022-12-18T06:40:32;33.57;;;18.27;;
25091;SDS011;13082;52.374;4.946;2022-12-18T06:42:58;34.57;;;19.50;;
25091;SDS011;13082;52.374;4.946;2022-12-18T06:45:24;30.27;;;17.10;;
25091;SDS011;13082;52.374;4.946;2022-12-18T06:47:50;34.97;;;18.47;;
25091;SDS011;13082;52.374;4.946;2022-12-18T06:50:15;31.23;;;17.33;;
25091;SDS011;13082;52.374;4.946;2022-12-18T06:52:41;33.60;;;17.67;;
25091;SDS011;13082;52.374;4.946;2022-12-18T06:55:08;25.73;;;15.37;;
25091;SDS011;13082;52.374;4.946;2022-12-18T06:57:35;27.97;;;16.33;;
25091;SDS011;13082;52.374;4.946;2022-12-18T07:00:02;29.60;;;16.53;;
25091;SDS011;13082;52.374;4.946;2022-12-18T07:02:28;31.00;;;16.43;;
25091;SDS011;13082;52.374;4.946;2022-12-18T07:04:54;31.07;;;15.20;;
25091;SDS011;13082;52.374;4.946;2022-12-18T07:07:19;24.73;;;14.47;;
25091;SDS011;13082;52.374;4.946;2022-12-18T07:09:45;25.83;;;14.80;;
25091;SDS011;13082;52.374;4.946;2022-12-18T07:12:10;24.77;;;14.43;;
25091;SDS011;13082;52.374;4.946;2022-12-18T07:14:36;22.70;;;14.87;;
25091;SDS011;13082;52.374;4.946;2022-12-18T07:17:02;24.83;;;14.37;;
25091;SDS011;13082;52.374;4.946;2022-12-18T07:19:27;24.80;;;13.90;;
25091;SDS011;13082;52.374;4.946;2022-12-18T07:21:54;24.23;;;13.63;;
25091;SDS011;13082;52.374;4.946;2022-12-18T07:24:19;25.97;;;14.00;;
25091;SDS011;13082;52.374;4.946;2022-12-18T07:26:45;25.50;;;13.27;;
25091;SDS011;13082;52.374;4.946;2022-12-18T07:29:11;23.23;;;12.87;;
25091;SDS011;13082;52.374;4.946;2022-12-18T07:31:39;25.03;;;14.27;;
25091;SDS011;13082;52.374;4.946;2022-12-18T07:34:04;19.70;;;12.97;;
25091;SDS011;13082;52.374;4.946;2022-12-18T07:36:30;22.77;;;13.23;;
25091;SDS011;13082;52.374;4.946;2022-12-18T07:38:55;23.03;;;13.23;;
25091;SDS011;13082;52.374;4.946;2022-12-18T07:41:21;24.47;;;14.53;;
25091;SDS011;13082;52.374;4.946;2022-12-18T07:43:47;21.70;;;12.97;;
25091;SDS011;13082;52.374;4.946;2022-12-18T07:46:13;22.63;;;13.47;;
25091;SDS011;13082;52.374;4.946;2022-12-18T07:48:41;24.83;;;14.40;;
25091;SDS011;13082;52.374;4.946;2022-12-18T07:51:07;22.13;;;13.17;;
25091;SDS011;13082;52.374;4.946;2022-12-18T07:53:33;26.60;;;13.63;;
25091;SDS011;13082;52.374;4.946;2022-12-18T07:56:01;24.67;;;13.23;;
25091;SDS011;13082;52.374;4.946;2022-12-18T07:58:30;21.70;;;12.97;;
25091;SDS011;13082;52.374;4.946;2022-12-18T08:01:08;21.30;;;12.73;;
25091;SDS011;13082;52.374;4.946;2022-12-18T08:03:35;21.17;;;12.47;;
25091;SDS011;13082;52.374;4.946;2022-12-18T08:06:02;26.60;;;13.10;;
25091;SDS011;13082;52.374;4.946;2022-12-18T08:08:29;21.27;;;12.13;;
25091;SDS011;13082;52.374;4.946;2022-12-18T08:10:56;21.53;;;12.60;;
25091;SDS011;13082;52.374;4.946;2022-12-18T08:13:22;21.97;;;13.47;;
25091;SDS011;13082;52.374;4.946;2022-12-18T08:15:57;23.70;;;12.90;;
25091;SDS011;13082;52.374;4.946;2022-12-18T08:18:24;17.33;;;10.97;;
25091;SDS011;13082;52.374;4.946;2022-12-18T08:20:50;20.77;;;11.83;;
25091;SDS011;13082;52.374;4.946;2022-12-18T08:23:16;19.00;;;11.60;;
25091;SDS011;13082;52.374;4.946;2022-12-18T08:25:41;22.60;;;12.47;;
25091;SDS011;13082;52.374;4.946;2022-12-18T08:28:07;22.17;;;12.07;;
25091;SDS011;13082;52.374;4.946;2022-12-18T08:30:32;18.43;;;11.67;;
25091;SDS011;13082;52.374;4.946;2022-12-18T08:32:58;19.43;;;11.73;;
25091;SDS011;13082;52.374;4.946;2022-12-18T08:35:23;20.93;;;12.37;;
25091;SDS011;13082;52.374;4.946;2022-12-18T08:37:49;17.03;;;10.53;;
25091;SDS011;13082;52.374;4.946;2022-12-18T08:40:15;18.83;;;11.60;;
25091;SDS011;13082;52.374;4.946;2022-12-18T08:42:40;22.03;;;12.50;;
25091;SDS011;13082;52.374;4.946;2022-12-18T08:45:25;19.10;;;12.30;;
25091;SDS011;13082;52.374;4.946;2022-12-18T08:47:51;20.47;;;12.43;;
25091;SDS011;13082;52.374;4.946;2022-12-18T08:50:16;18.97;;;11.77;;
25091;SDS011;13082;52.374;4.946;2022-12-18T08:52:42;21.97;;;12.30;;
25091;SDS011;13082;52.374;4.946;2022-12-18T08:55:08;19.93;;;12.47;;
25091;SDS011;13082;52.374;4.946;2022-12-18T08:57:34;17.97;;;10.20;;
25091;SDS011;13082;52.374;4.946;2022-12-18T08:59:59;20.60;;;11.77;;
25091;SDS011;13082;52.374;4.946;2022-12-18T09:02:25;18.30;;;11.73;;
25091;SDS011;13082;52.374;4.946;2022-12-18T09:04:50;17.53;;;11.20;;
25091;SDS011;13082;52.374;4.946;2022-12-18T09:07:16;16.47;;;11.63;;
25091;SDS011;13082;52.374;4.946;2022-12-18T09:09:42;16.97;;;11.20;;
25091;SDS011;13082;52.374;4.946;2022-12-18T09:12:07;19.80;;;12.83;;
25091;SDS011;13082;52.374;4.946;2022-12-18T09:14:33;19.40;;;11.83;;
25091;SDS011;13082;52.374;4.946;2022-12-18T09:16:59;19.23;;;11.17;;
25091;SDS011;13082;52.374;4.946;2022-12-18T09:19:25;19.53;;;11.80;;
25091;SDS011;13082;52.374;4.946;2022-12-18T09:21:50;16.47;;;10.80;;
25091;SDS011;13082;52.374;4.946;2022-12-18T09:24:16;17.47;;;11.33;;
25091;SDS011;13082;52.374;4.946;2022-12-18T09:26:42;22.63;;;12.07;;
25091;SDS011;13082;52.374;4.946;2022-12-18T09:29:08;18.80;;;10.93;;
25091;SDS011;13082;52.374;4.946;2022-12-18T09:31:34;17.70;;;11.30;;
25091;SDS011;13082;52.374;4.946;2022-12-18T09:34:00;17.97;;;11.63;;
25091;SDS011;13082;52.374;4.946;2022-12-18T09:36:26;16.70;;;11.30;;
25091;SDS011;13082;52.374;4.946;2022-12-18T09:38:52;18.73;;;12.53;;
25091;SDS011;13082;52.374;4.946;2022-12-18T09:44:22;17.07;;;11.70;;
25091;SDS011;13082;52.374;4.946;2022-12-18T09:49:32;16.17;;;11.57;;
25091;SDS011;13082;52.374;4.946;2022-12-18T09:54:39;19.20;;;11.23;;
25091;SDS011;13082;52.374;4.946;2022-12-18T09:57:06;21.73;;;12.80;;
25091;SDS011;13082;52.374;4.946;2022-12-18T09:59:38;19.10;;;12.27;;
25091;SDS011;13082;52.374;4.946;2022-12-18T10:02:22;15.77;;;10.23;;
25091;SDS011;13082;52.374;4.946;2022-12-18T10:05:03;18.67;;;12.27;;
25091;SDS011;13082;52.374;4.946;2022-12-18T10:10:18;19.23;;;11.10;;
25091;SDS011;13082;52.374;4.946;2022-12-18T10:15:30;20.57;;;11.40;;
25091;SDS011;13082;52.374;4.946;2022-12-18T10:20:48;17.47;;;11.23;;
25091;SDS011;13082;52.374;4.946;2022-12-18T10:23:28;16.47;;;11.17;;
25091;SDS011;13082;52.374;4.946;2022-12-18T10:28:35;18.50;;;10.93;;
25091;SDS011;13082;52.374;4.946;2022-12-18T10:31:02;17.17;;;10.83;;
25091;SDS011;13082;52.374;4.946;2022-12-18T10:33:40;15.60;;;10.60;;
25091;SDS011;13082;52.374;4.946;2022-12-18T10:36:06;17.10;;;11.03;;
25091;SDS011;13082;52.374;4.946;2022-12-18T10:38:32;17.50;;;9.97;;
25091;SDS011;13082;52.374;4.946;2022-12-18T10:41:02;19.60;;;10.17;;
25091;SDS011;13082;52.374;4.946;2022-12-18T10:46:04;18.00;;;11.60;;
25091;SDS011;13082;52.374;4.946;2022-12-18T10:48:35;19.50;;;11.20;;
25091;SDS011;13082;52.374;4.946;2022-12-18T10:51:05;17.00;;;10.60;;
25091;SDS011;13082;52.374;4.946;2022-12-18T10:53:33;14.43;;;10.20;;
25091;SDS011;13082;52.374;4.946;2022-12-18T10:56:00;17.37;;;10.63;;
25091;SDS011;13082;52.374;4.946;2022-12-18T10:58:32;15.27;;;10.13;;
25091;SDS011;13082;52.374;4.946;2022-12-18T11:01:10;14.97;;;10.83;;
25091;SDS011;13082;52.374;4.946;2022-12-18T11:03:42;14.40;;;10.00;;
25091;SDS011;13082;52.374;4.946;2022-12-18T11:11:29;19.33;;;11.33;;
25091;SDS011;13082;52.374;4.946;2022-12-18T11:14:03;15.40;;;10.10;;
25091;SDS011;13082;52.374;4.946;2022-12-18T11:16:33;17.27;;;10.97;;
25091;SDS011;13082;52.374;4.946;2022-12-18T11:21:50;18.37;;;11.93;;
25091;SDS011;13082;52.374;4.946;2022-12-18T11:24:20;16.03;;;10.40;;
25091;SDS011;13082;52.374;4.946;2022-12-18T11:26:51;15.73;;;10.77;;
25091;SDS011;13082;52.374;4.946;2022-12-18T11:29:18;14.77;;;9.30;;
25091;SDS011;13082;52.374;4.946;2022-12-18T11:37:33;14.03;;;9.83;;
25091;SDS011;13082;52.374;4.946;2022-12-18T11:40:11;12.90;;;9.60;;
25091;SDS011;13082;52.374;4.946;2022-12-18T11:42:52;18.63;;;10.00;;
25091;SDS011;13082;52.374;4.946;2022-12-18T11:45:24;17.50;;;10.80;;
25091;SDS011;13082;52.374;4.946;2022-12-18T11:47:57;14.77;;;9.73;;
25091;SDS011;13082;52.374;4.946;2022-12-18T11:53:02;17.17;;;10.30;;
25091;SDS011;13082;52.374;4.946;2022-12-18T11:55:35;16.33;;;9.63;;
25091;SDS011;13082;52.374;4.946;2022-12-18T11:58:15;15.63;;;9.90;;
25091;SDS011;13082;52.374;4.946;2022-12-18T12:14:50;18.07;;;9.97;;
25091;SDS011;13082;52.374;4.946;2022-12-18T12:17:49;15.87;;;10.20;;
25091;SDS011;13082;52.374;4.946;2022-12-18T12:20:24;16.10;;;10.27;;
25091;SDS011;13082;52.374;4.946;2022-12-18T12:25:44;16.40;;;9.77;;
25091;SDS011;13082;52.374;4.946;2022-12-18T12:29:23;14.53;;;10.03;;
25091;SDS011;13082;52.374;4.946;2022-12-18T12:31:41;17.30;;;10.50;;
25091;SDS011;13082;52.374;4.946;2022-12-18T12:34:26;17.30;;;10.03;;
25091;SDS011;13082;52.374;4.946;2022-12-18T12:40:05;13.43;;;9.07;;
25091;SDS011;13082;52.374;4.946;2022-12-18T12:42:33;15.17;;;9.77;;
25091;SDS011;13082;52.374;4.946;2022-12-18T12:45:30;16.57;;;9.97;;
25091;SDS011;13082;52.374;4.946;2022-12-18T12:48:03;16.23;;;9.43;;
25091;SDS011;13082;52.374;4.946;2022-12-18T12:50:36;14.60;;;9.50;;
25091;SDS011;13082;52.374;4.946;2022-12-18T12:53:05;13.00;;;9.23;;
25091;SDS011;13082;52.374;4.946;2022-12-18T12:55:34;23.00;;;10.67;;
25091;SDS011;13082;52.374;4.946;2022-12-18T13:01:12;17.03;;;9.93;;
25091;SDS011;13082;52.374;4.946;2022-12-18T13:03:52;16.43;;;9.77;;
25091;SDS011;13082;52.374;4.946;2022-12-18T13:07:10;16.23;;;9.97;;
25091;SDS011;13082;52.374;4.946;2022-12-18T13:09:14;16.93;;;9.43;;
25091;SDS011;13082;52.374;4.946;2022-12-18T13:11:40;12.23;;;9.77;;
25091;SDS011;13082;52.374;4.946;2022-12-18T13:14:28;15.40;;;8.97;;
25091;SDS011;13082;52.374;4.946;2022-12-18T13:17:14;18.27;;;10.30;;
25091;SDS011;13082;52.374;4.946;2022-12-18T13:19:49;15.73;;;8.47;;
25091;SDS011;13082;52.374;4.946;2022-12-18T13:22:23;14.33;;;9.67;;
25091;SDS011;13082;52.374;4.946;2022-12-18T13:24:53;17.53;;;9.30;;
25091;SDS011;13082;52.374;4.946;2022-12-18T13:35:39;17.20;;;10.50;;
25091;SDS011;13082;52.374;4.946;2022-12-18T13:38:22;15.47;;;9.13;;
25091;SDS011;13082;52.374;4.946;2022-12-18T13:43:51;19.23;;;10.23;;
25091;SDS011;13082;52.374;4.946;2022-12-18T13:46:28;15.87;;;10.17;;
25091;SDS011;13082;52.374;4.946;2022-12-18T13:49:28;13.70;;;9.40;;
25091;SDS011;13082;52.374;4.946;2022-12-18T13:52:19;16.20;;;9.20;;
25091;SDS011;13082;52.374;4.946;2022-12-18T13:54:51;13.83;;;9.77;;
25091;SDS011;13082;52.374;4.946;2022-12-18T13:57:27;15.77;;;9.80;;
25091;SDS011;13082;52.374;4.946;2022-12-18T13:59:58;9.87;;;7.67;;
25091;SDS011;13082;52.374;4.946;2022-12-18T14:02:44;12.13;;;8.23;;
25091;SDS011;13082;52.374;4.946;2022-12-18T14:05:32;14.30;;;6.83;;
25091;SDS011;13082;52.374;4.946;2022-12-18T14:08:01;14.03;;;7.37;;
25091;SDS011;13082;52.374;4.946;2022-12-18T14:10:30;14.30;;;7.80;;
25091;SDS011;13082;52.374;4.946;2022-12-18T14:12:57;16.33;;;8.03;;
25091;SDS011;13082;52.374;4.946;2022-12-18T14:15:34;15.77;;;8.43;;
25091;SDS011;13082;52.374;4.946;2022-12-18T14:20:51;11.17;;;7.97;;
25091;SDS011;13082;52.374;4.946;2022-12-18T14:26:03;15.97;;;8.43;;
25091;SDS011;13082;52.374;4.946;2022-12-18T14:28:45;15.20;;;8.40;;
25091;SDS011;13082;52.374;4.946;2022-12-18T14:31:17;13.37;;;8.10;;
25091;SDS011;13082;52.374;4.946;2022-12-18T14:33:44;15.77;;;8.83;;
25091;SDS011;13082;52.374;4.946;2022-12-18T14:36:17;13.10;;;7.03;;
25091;SDS011;13082;52.374;4.946;2022-12-18T14:38:53;12.93;;;7.67;;
25091;SDS011;13082;52.374;4.946;2022-12-18T14:41:23;12.60;;;6.87;;
25091;SDS011;13082;52.374;4.946;2022-12-18T14:43:51;14.13;;;7.70;;
25091;SDS011;13082;52.374;4.946;2022-12-18T14:51:52;12.90;;;7.47;;
25091;SDS011;13082;52.374;4.946;2022-12-18T14:54:22;12.70;;;7.73;;
25091;SDS011;13082;52.374;4.946;2022-12-18T14:56:50;18.40;;;8.27;;
25091;SDS011;13082;52.374;4.946;2022-12-18T14:59:21;12.33;;;7.17;;
25091;SDS011;13082;52.374;4.946;2022-12-18T15:01:56;12.00;;;7.30;;
25091;SDS011;13082;52.374;4.946;2022-12-18T15:04:41;11.73;;;6.77;;
25091;SDS011;13082;52.374;4.946;2022-12-18T15:07:16;12.10;;;7.20;;
25091;SDS011;13082;52.374;4.946;2022-12-18T15:17:59;13.73;;;7.20;;
25091;SDS011;13082;52.374;4.946;2022-12-18T15:20:27;12.67;;;7.83;;
25091;SDS011;13082;52.374;4.946;2022-12-18T15:22:52;14.10;;;7.70;;
25091;SDS011;13082;52.374;4.946;2022-12-18T15:25:37;18.27;;;7.27;;
25091;SDS011;13082;52.374;4.946;2022-12-18T15:28:03;13.17;;;7.27;;
25091;SDS011;13082;52.374;4.946;2022-12-18T15:30:57;16.17;;;8.77;;
25091;SDS011;13082;52.374;4.946;2022-12-18T15:36:22;14.87;;;8.23;;
25091;SDS011;13082;52.374;4.946;2022-12-18T15:38:49;12.97;;;7.73;;
25091;SDS011;13082;52.374;4.946;2022-12-18T15:41:17;13.63;;;8.13;;
25091;SDS011;13082;52.374;4.946;2022-12-18T15:43:44;12.93;;;7.20;;
25091;SDS011;13082;52.374;4.946;2022-12-18T15:46:15;13.77;;;7.07;;
25091;SDS011;13082;52.374;4.946;2022-12-18T15:48:43;12.27;;;7.10;;
25091;SDS011;13082;52.374;4.946;2022-12-18T15:51:15;15.73;;;8.67;;
25091;SDS011;13082;52.374;4.946;2022-12-18T15:53:43;16.03;;;8.13;;
25091;SDS011;13082;52.374;4.946;2022-12-18T15:56:19;12.93;;;7.43;;
25091;SDS011;13082;52.374;4.946;2022-12-18T15:59:36;13.90;;;7.83;;
25091;SDS011;13082;52.374;4.946;2022-12-18T16:01:56;13.50;;;7.57;;
25091;SDS011;13082;52.374;4.946;2022-12-18T16:04:22;13.17;;;7.03;;
25091;SDS011;13082;52.374;4.946;2022-12-18T16:06:48;13.10;;;7.90;;
25091;SDS011;13082;52.374;4.946;2022-12-18T16:09:15;12.67;;;7.40;;
25091;SDS011;13082;52.374;4.946;2022-12-18T16:11:41;15.93;;;7.87;;
25091;SDS011;13082;52.374;4.946;2022-12-18T16:16:39;12.87;;;8.10;;
25091;SDS011;13082;52.374;4.946;2022-12-18T16:19:04;20.40;;;8.60;;
25091;SDS011;13082;52.374;4.946;2022-12-18T16:21:30;18.60;;;8.27;;
25091;SDS011;13082;52.374;4.946;2022-12-18T16:23:56;15.70;;;8.03;;
25091;SDS011;13082;52.374;4.946;2022-12-18T16:26:21;14.17;;;8.37;;
25091;SDS011;13082;52.374;4.946;2022-12-18T16:28:47;14.07;;;7.57;;
25091;SDS011;13082;52.374;4.946;2022-12-18T16:31:12;18.20;;;8.67;;
25091;SDS011;13082;52.374;4.946;2022-12-18T16:33:38;16.63;;;9.10;;
25091;SDS011;13082;52.374;4.946;2022-12-18T16:36:03;13.83;;;8.23;;
25091;SDS011;13082;52.374;4.946;2022-12-18T16:38:29;20.10;;;8.60;;
25091;SDS011;13082;52.374;4.946;2022-12-18T16:40:55;12.73;;;8.63;;
25091;SDS011;13082;52.374;4.946;2022-12-18T16:43:39;17.33;;;7.90;;
25091;SDS011;13082;52.374;4.946;2022-12-18T16:46:05;17.33;;;9.17;;